Time;durP1;ratioP1;P1;durP2;ratioP2;P2;SDS_P1;SDS_P2;PMS_P1;PMS_P2;Temp;Humidity;BMP_temperature;BMP_pressure;BME280_temperature;BME280_humidity;BME280_pressure;Samples;Min_cycle;Max_cycle;Signal;HPM_P1;HPM_P2
2022/12/05 00:04:48;;;;;;;1.38;0.32;;;2.90;99.90;;;;;;20216786;23;20143;-57
2022/12/05 00:14:51;;;;;;;0.73;0.45;;;2.70;99.90;;;;;;20202530;23;20095;-60
2022/12/05 00:24:54;;;;;;;2.75;0.55;;;2.60;99.90;;;;;;20185865;23;20132;-60
2022/12/05 00:34:57;;;;;;;1.55;0.50;;;2.50;99.90;;;;;;20234704;23;20440;-57
2022/12/05 00:44:59;;;;;;;2.92;0.65;;;2.60;99.90;;;;;;20231369;23;20057;-60
2022/12/05 00:55:02;;;;;;;2.63;0.43;;;2.60;99.90;;;;;;20238635;23;20106;-56
2022/12/05 01:05:05;;;;;;;1.40;0.43;;;2.60;99.90;;;;;;20247921;23;20041;-52
2022/12/05 01:15:08;;;;;;;1.15;0.35;;;2.40;99.90;;;;;;20183237;23;20121;-60
2022/12/05 01:25:10;;;;;;;2.25;0.38;;;2.20;99.90;;;;;;20235178;23;20062;-59
2022/12/05 01:35:13;;;;;;;0.30;0.20;;;2.00;99.90;;;;;;20232792;23;20438;-60
2022/12/05 01:45:21;;;;;;;0.40;0.20;;;2.00;99.90;;;;;;20239055;23;20497;-49
2022/12/05 01:55:24;;;;;;;0.47;0.10;;;2.00;99.90;;;;;;20205588;23;20028;-59
2022/12/05 02:05:36;;;;;;;0.10;0.10;;;1.90;99.90;;;;;;20187679;23;20102;-58
2022/12/05 02:16:02;;;;;;;0.55;0.10;;;2.00;99.90;;;;;;20208477;23;20504;-61
2022/12/05 02:26:04;;;;;;;0.30;0.10;;;2.00;99.90;;;;;;20202173;23;20061;-59
2022/12/05 02:36:22;;;;;;;0.20;0.10;;;2.00;99.90;;;;;;20229003;23;20134;-56
2022/12/05 02:46:28;;;;;;;0.10;0.03;;;1.90;99.90;;;;;;20225225;23;20508;-54
2022/12/05 02:56:35;;;;;;;0.03;0.00;;;1.80;99.90;;;;;;20235214;23;20099;-62
2022/12/05 03:07:09;;;;;;;0.47;0.10;;;1.70;99.90;;;;;;20175452;23;1252156;-59
2022/12/05 03:17:18;;;;;;;0.00;0.00;;;1.70;99.90;;;;;;20178042;23;20057;-62
2022/12/05 03:27:33;;;;;;;0.00;0.00;;;1.60;99.90;;;;;;20218147;23;20891;-59
2022/12/05 03:37:41;;;;;;;0.00;0.00;;;1.50;99.90;;;;;;20244149;23;20113;-59
2022/12/05 03:58:29;;;;;;;0.00;0.00;;;1.60;99.90;;;;;;20156245;23;20057;-58
2022/12/05 04:08:37;;;;;;;0.00;0.00;;;1.70;99.90;;;;;;20229104;23;20121;-62
2022/12/05 04:18:48;;;;;;;0.00;0.00;;;1.80;99.90;;;;;;20260577;23;20101;-57
2022/12/05 04:29:09;;;;;;;0.00;0.00;;;2.00;99.90;;;;;;20222647;23;20853;-61
2022/12/05 04:39:15;;;;;;;1.60;0.00;;;2.10;99.90;;;;;;20245483;23;20492;-57
2022/12/05 04:49:25;;;;;;;0.00;0.00;;;2.30;99.90;;;;;;20243041;23;20540;-62
2022/12/05 04:59:27;;;;;;;0.00;0.00;;;2.40;99.90;;;;;;20243610;23;20058;-58
2022/12/05 05:09:33;;;;;;;0.00;0.00;;;2.50;99.90;;;;;;20234376;23;20065;31
2022/12/05 05:19:35;;;;;;;0.10;0.00;;;2.50;99.90;;;;;;20125810;23;20058;-62
2022/12/05 05:29:38;;;;;;;0.57;0.00;;;2.50;99.90;;;;;;20240221;23;20496;-58
2022/12/05 05:39:40;;;;;;;0.00;0.00;;;2.60;99.90;;;;;;20250977;23;20125;-62
2022/12/05 05:49:42;;;;;;;0.10;0.03;;;2.60;99.90;;;;;;20215210;23;20046;-62
2022/12/05 05:59:45;;;;;;;0.40;0.00;;;2.70;99.90;;;;;;20238326;23;20409;-65
2022/12/05 06:09:48;;;;;;;0.00;0.00;;;2.70;99.90;;;;;;20277832;23;20836;-54
2022/12/05 06:19:50;;;;;;;0.80;0.10;;;2.70;99.90;;;;;;20380529;23;20114;-56
2022/12/05 06:29:53;;;;;;;0.57;0.00;;;2.80;99.90;;;;;;20315617;23;20484;-48
2022/12/05 06:39:55;;;;;;;0.03;0.00;;;2.80;99.90;;;;;;20233228;23;20433;-60
2022/12/05 06:49:58;;;;;;;0.10;0.00;;;2.80;99.90;;;;;;20283464;23;20544;-61
2022/12/05 07:10:25;;;;;;;0.68;0.40;;;2.80;99.90;;;;;;20155393;23;20130;-61
2022/12/05 07:20:28;;;;;;;0.88;0.52;;;3.00;99.90;;;;;;20214738;23;20110;-60
2022/12/05 07:30:30;;;;;;;215.43;7.07;;;3.10;99.90;;;;;;20257873;23;20114;-47
2022/12/05 07:40:33;;;;;;;22.63;1.52;;;3.20;99.90;;;;;;20226558;23;20058;-61
2022/12/05 07:50:36;;;;;;;3.97;0.73;;;3.50;99.90;;;;;;20195024;23;20058;-47
2022/12/05 08:00:38;;;;;;;318.75;10.80;;;3.60;99.90;;;;;;20215275;23;20091;-60
2022/12/05 08:10:41;;;;;;;20.15;1.88;;;3.60;99.90;;;;;;20230454;23;20057;-60
2022/12/05 08:20:47;;;;;;;53.40;4.70;;;3.70;99.90;;;;;;20183887;23;20066;-60
2022/12/05 08:30:49;;;;;;;2.47;1.75;;;4.00;99.90;;;;;;20247162;23;20441;-62
2022/12/05 08:40:51;;;;;;;2.28;1.58;;;4.40;99.90;;;;;;20214535;23;20050;-60
2022/12/05 08:50:56;;;;;;;91.82;4.22;;;4.40;99.90;;;;;;20596987;23;20054;-44
2022/12/05 09:01:19;;;;;;;1.00;0.73;;;4.20;99.90;;;;;;20229644;23;20117;-62
2022/12/05 09:11:29;;;;;;;16.63;2.47;;;4.30;99.90;;;;;;20234177;23;20572;-60
2022/12/05 09:21:32;;;;;;;1.98;1.20;;;4.40;99.90;;;;;;20235906;23;20057;-61
2022/12/05 09:31:35;;;;;;;27.48;1.60;;;4.40;99.90;;;;;;20214550;23;20130;-61
2022/12/05 09:42:06;;;;;;;107.65;3.70;;;4.30;99.90;;;;;;20263992;23;20081;-62
2022/12/05 09:52:26;;;;;;;10.70;0.77;;;4.30;99.90;;;;;;20221870;23;20117;-60
2022/12/05 10:02:53;;;;;;;22.25;2.58;;;4.40;99.90;;;;;;20239709;23;20037;-62
2022/12/05 10:13:29;;;;;;;2.63;0.82;;;4.40;99.90;;;;;;20265078;23;20077;-61
2022/12/05 10:23:43;;;;;;;0.50;0.35;;;4.40;99.90;;;;;;20199253;23;20032;-62
2022/12/05 10:33:50;;;;;;;5.45;0.85;;;4.50;99.90;;;;;;20285267;23;20102;-60
2022/12/05 10:44:10;;;;;;;303.50;9.88;;;4.60;99.90;;;;;;20167537;23;20053;-61
2022/12/05 11:04:43;;;;;;;215.60;7.82;;;4.50;99.90;;;;;;20158086;23;20152;-60
2022/12/05 11:15:30;;;;;;;408.50;12.75;;;4.40;99.90;;;;;;20254637;23;20058;-50
2022/12/05 11:25:35;;;;;;;663.33;21.00;;;4.40;99.90;;;;;;20191118;23;20746;-61
2022/12/05 11:35:38;;;;;;;69.03;2.70;;;4.40;99.90;;;;;;20220893;23;20058;-61
2022/12/05 11:46:06;;;;;;;9.32;1.10;;;4.50;99.90;;;;;;20190059;23;1424189;-63
2022/12/05 11:56:33;;;;;;;252.60;8.02;;;4.70;99.90;;;;;;20236529;23;20109;-61
2022/12/05 12:07:00;;;;;;;262.65;8.63;;;4.50;99.90;;;;;;20230538;23;20049;-61
2022/12/05 12:17:24;;;;;;;256.85;8.48;;;4.60;99.90;;;;;;20250262;23;20090;-61
2022/12/05 12:28:04;;;;;;;220.18;6.93;;;4.90;99.90;;;;;;20256148;23;20054;-61
2022/12/05 12:38:29;;;;;;;595.13;18.80;;;4.90;99.90;;;;;;20196177;23;20106;-61
2022/12/05 12:49:12;;;;;;;824.75;25.02;;;5.00;99.90;;;;;;20237283;23;20496;-60
2022/12/05 12:59:17;;;;;;;18.20;1.75;;;5.10;99.90;;;;;;20212137;23;20058;-62
2022/12/05 13:09:27;;;;;;;711.10;22.20;;;5.10;99.90;;;;;;20244250;23;20049;-61
2022/12/05 13:19:50;;;;;;;71.20;4.40;;;4.90;99.90;;;;;;20251380;23;20138;-61
2022/12/05 13:29:54;;;;;;;1.38;1.10;;;4.70;99.90;;;;;;20236392;23;20062;-60
2022/12/05 13:50:42;;;;;;;368.75;13.32;;;4.60;99.90;;;;;;20213274;23;20057;-51
2022/12/05 14:00:44;;;;;;;0.20;0.00;;;4.50;99.90;;;;;;20224938;23;20054;-64
2022/12/05 14:10:50;;;;;;;0.03;0.00;;;3.80;99.90;;;;;;20201635;23;20547;-62
2022/12/05 14:21:21;;;;;;;0.47;0.17;;;3.20;99.90;;;;;;20243005;23;20446;-59
2022/12/05 14:32:05;;;;;;;0.35;0.10;;;3.20;99.90;;;;;;20218540;23;20098;-62
2022/12/05 14:42:32;;;;;;;0.13;0.00;;;3.10;99.90;;;;;;20177350;23;20090;-64
2022/12/05 14:52:37;;;;;;;0.50;0.10;;;3.00;99.90;;;;;;20160224;23;20093;-65
2022/12/05 15:02:47;;;;;;;0.17;0.17;;;3.30;99.90;;;;;;20284360;23;20057;-52
2022/12/05 15:13:16;;;;;;;;;;;3.40;99.90;;;;;;20802046;23;21229;-48
2022/12/05 15:23:44;;;;;;;0.90;0.40;;;3.40;99.90;;;;;;20270441;23;19932;-61
2022/12/05 15:33:54;;;;;;;2.50;0.30;;;3.70;99.90;;;;;;20229316;23;20577;-61
2022/12/05 15:43:57;;;;;;;682.80;25.35;;;3.70;99.90;;;;;;20243870;23;20058;-61
2022/12/05 15:54:14;;;;;;;3.30;0.50;;;3.70;99.90;;;;;;20227836;23;20058;-61
2022/12/05 16:04:36;;;;;;;0.57;0.40;;;3.50;99.90;;;;;;20222624;23;20083;-60
2022/12/05 16:14:39;;;;;;;1.85;0.77;;;3.70;99.90;;;;;;20230152;23;20046;-62
2022/12/05 16:24:42;;;;;;;1.10;0.22;;;3.50;99.90;;;;;;20162426;23;20065;-61
2022/12/05 16:35:02;;;;;;;;;;;3.40;99.90;;;;;;20217032;23;20054;-61
2022/12/05 16:45:23;;;;;;;0.70;0.50;;;3.30;99.90;;;;;;20218797;23;19932;-61
2022/12/05 16:55:26;;;;;;;;;;;3.00;99.90;;;;;;20244517;23;20050;-61
2022/12/05 17:05:29;;;;;;;1.13;0.38;;;3.00;99.90;;;;;;20224404;23;19998;-61
2022/12/05 17:15:35;;;;;;;0.30;0.25;;;2.80;99.90;;;;;;20181614;23;20046;-60
2022/12/05 17:25:42;;;;;;;0.68;0.32;;;2.90;99.90;;;;;;20179573;23;20057;-61
2022/12/05 17:35:46;;;;;;;0.57;0.20;;;3.00;99.90;;;;;;20192142;23;20061;-62
2022/12/05 17:45:48;;;;;;;0.60;0.30;;;3.00;99.90;;;;;;20224612;23;20582;-59
2022/12/05 17:55:51;;;;;;;0.60;0.20;;;2.50;99.90;;;;;;20223857;23;20061;-60
2022/12/05 18:05:54;;;;;;;0.65;0.20;;;2.20;99.90;;;;;;20232619;23;20050;-59
2022/12/05 18:15:58;;;;;;;0.40;0.20;;;2.70;99.90;;;;;;20237530;23;20078;-62
2022/12/05 18:36:20;;;;;;;0.45;0.22;;;3.00;99.90;;;;;;20174040;23;20121;-62
2022/12/05 18:46:22;;;;;;;0.63;0.20;;;3.20;99.90;;;;;;20230734;23;20581;-62
2022/12/05 18:56:27;;;;;;;0.40;0.20;;;3.20;99.90;;;;;;20768934;23;20057;-62
2022/12/05 19:06:31;;;;;;;1.75;0.17;;;3.30;99.90;;;;;;20230146;23;21164;-59
2022/12/05 19:16:35;;;;;;;0.22;0.10;;;3.30;99.90;;;;;;20233275;23;20041;-62
2022/12/05 19:26:39;;;;;;;0.52;0.10;;;3.20;99.90;;;;;;20191896;23;20485;-63
2022/12/05 19:36:58;;;;;;;0.10;0.10;;;2.90;99.90;;;;;;20206030;23;20054;-52
2022/12/05 19:47:01;;;;;;;0.10;0.05;;;2.90;99.90;;;;;;20224771;23;20126;-63
2022/12/05 19:57:06;;;;;;;0.20;0.13;;;2.50;99.90;;;;;;20262670;23;20588;-60
2022/12/05 20:07:09;;;;;;;0.10;0.00;;;2.40;99.90;;;;;;20227481;23;20049;-61
2022/12/05 20:17:11;;;;;;;0.25;0.10;;;2.00;99.90;;;;;;20255900;23;20058;-61
2022/12/05 20:27:14;;;;;;;0.65;0.10;;;2.30;99.90;;;;;;20102567;23;2003428;-61
2022/12/05 20:37:18;;;;;;;0.22;0.20;;;1.70;99.90;;;;;;20234578;23;20057;-60
2022/12/05 20:47:21;;;;;;;0.28;0.10;;;0.80;99.90;;;;;;20219358;23;20457;-51
2022/12/05 20:57:23;;;;;;;0.70;0.40;;;0.40;99.90;;;;;;20255702;23;20058;-62
2022/12/05 21:07:26;;;;;;;1.50;0.80;;;0.20;99.90;;;;;;20227719;23;20041;-59
2022/12/05 21:17:29;;;;;;;1.05;0.50;;;0.10;99.90;;;;;;20201777;23;20489;-52
2022/12/05 21:27:45;;;;;;;0.63;0.30;;;0.00;99.90;;;;;;20235871;23;20065;-60
2022/12/05 21:37:49;;;;;;;0.70;0.40;;;0.10;99.90;;;;;;20207023;23;20054;-61
2022/12/05 21:47:51;;;;;;;2.50;0.20;;;0.30;99.90;;;;;;20259750;23;20130;-61
2022/12/05 21:57:54;;;;;;;0.10;0.10;;;0.10;99.90;;;;;;20252379;23;20357;-60
2022/12/05 22:07:58;;;;;;;0.30;0.20;;;-0.20;99.90;;;;;;20220602;23;20057;-61
2022/12/05 22:18:01;;;;;;;0.47;0.20;;;-0.50;99.90;;;;;;20207873;23;20066;-62
2022/12/05 22:28:04;;;;;;;0.68;0.28;;;-0.70;99.90;;;;;;20232783;23;20118;-60
2022/12/05 22:38:07;;;;;;;7.30;4.53;;;-0.90;99.90;;;;;;20256193;23;20575;-60
2022/12/05 22:48:10;;;;;;;9.18;6.10;;;-0.60;99.90;;;;;;20182660;23;20057;-60
2022/12/05 22:58:13;;;;;;;5.53;3.47;;;-0.40;99.90;;;;;;20235171;23;20046;-62
2022/12/05 23:08:15;;;;;;;7.63;4.93;;;-0.50;99.90;;;;;;20204194;23;20500;-58
2022/12/05 23:18:19;;;;;;;5.43;3.50;;;-0.40;99.90;;;;;;20248448;23;20137;-60
2022/12/05 23:28:21;;;;;;;3.42;2.17;;;-0.30;99.90;;;;;;20256688;23;20052;-66
2022/12/05 23:38:25;;;;;;;1.73;0.80;;;-0.60;99.90;;;;;;20235548;23;20050;-60
2022/12/05 23:48:27;;;;;;;0.50;0.30;;;-0.90;99.90;;;;;;20258482;23;20114;-61
2022/12/05 23:58:44;;;;;;;0.85;0.52;;;-1.10;99.90;;;;;;20204773;23;20513;-61
